Time;durP1;ratioP1;P1;durP2;ratioP2;P2;SDS_P1;SDS_P2;PMS_P1;PMS_P2;Temp;Humidity;BMP_temperature;BMP_pressure;BME280_temperature;BME280_humidity;BME280_pressure;Samples;Min_cycle;Max_cycle;Signal;HPM_P1;HPM_P2
2021/12/28 00:00:47;;;;;;;3.70;2.77;;;8.60;99.90;;;8.75;100.00;99106.91;4989726;28;20769;-65
2021/12/28 00:03:15;;;;;;;3.40;3.07;;;8.60;99.90;;;8.80;100.00;99109.91;5006280;28;20746;-65
2021/12/28 00:05:42;;;;;;;4.40;2.80;;;8.50;99.90;;;8.81;100.00;99109.78;4990258;28;20638;-65
2021/12/28 00:08:08;;;;;;;4.90;2.50;;;8.60;99.90;;;8.82;100.00;99101.00;4990451;28;20732;-65
2021/12/28 00:10:35;;;;;;;2.70;2.50;;;8.60;99.90;;;8.87;100.00;99108.41;4975852;28;20633;-65
2021/12/28 00:13:02;;;;;;;2.50;2.30;;;8.70;99.90;;;8.90;100.00;99101.13;4974266;28;20976;-65
2021/12/28 00:17:59;;;;;;;1.53;1.23;;;8.70;99.90;;;8.88;100.00;99090.06;4992512;28;20658;-65
2021/12/28 00:20:30;;;;;;;2.40;2.20;;;8.70;99.90;;;8.91;100.00;99087.19;4992182;28;20645;-65
2021/12/28 00:22:57;;;;;;;5.70;3.10;;;8.70;99.90;;;8.97;100.00;99085.81;4992500;28;20744;-64
2021/12/28 00:25:25;;;;;;;4.37;1.73;;;8.80;99.90;;;9.02;100.00;99081.03;4991841;28;21166;-65
2021/12/28 00:27:52;;;;;;;3.13;2.00;;;8.80;99.90;;;9.01;100.00;99084.56;5007447;28;20632;-65
2021/12/28 00:30:20;;;;;;;2.17;1.80;;;8.80;99.90;;;8.99;100.00;99083.88;4982146;28;20798;-65
2021/12/28 00:32:52;;;;;;;3.10;2.37;;;8.80;99.90;;;9.05;100.00;99088.56;4992430;28;20648;-65
2021/12/28 00:35:25;;;;;;;7.40;2.17;;;8.80;99.90;;;9.05;100.00;99086.75;4992707;28;22092;-65
2021/12/28 00:37:53;;;;;;;6.87;2.10;;;8.90;99.90;;;9.10;100.00;99084.59;4991736;28;20756;-65
2021/12/28 00:40:20;;;;;;;4.13;1.70;;;8.90;99.90;;;9.12;100.00;99100.88;4990667;28;20725;-65
2021/12/28 00:42:47;;;;;;;2.43;1.47;;;8.90;99.90;;;9.14;100.00;99093.75;4992991;28;20622;-65
2021/12/28 00:45:15;;;;;;;4.40;2.33;;;8.90;99.90;;;9.18;100.00;99089.06;4989164;28;20634;-65
2021/12/28 00:47:42;;;;;;;1.30;1.20;;;9.00;99.90;;;9.14;100.00;99080.75;4982786;28;20619;-65
2021/12/28 00:50:13;;;;;;;1.33;0.93;;;9.00;99.90;;;9.22;100.00;99083.47;4991913;28;20642;-65
2021/12/28 00:52:40;;;;;;;3.13;1.70;;;9.00;99.90;;;9.21;100.00;99094.03;4988626;28;20659;-64
2021/12/28 00:55:10;;;;;;;6.07;1.63;;;9.00;99.90;;;9.20;100.00;99094.97;4973545;28;20635;-65
2021/12/28 00:57:37;;;;;;;2.00;1.87;;;9.00;99.90;;;9.23;100.00;99095.53;4991229;28;21041;-65
2021/12/28 01:00:11;;;;;;;6.70;2.00;;;9.00;99.90;;;9.26;100.00;99082.22;4989250;28;20650;-65
2021/12/28 01:02:39;;;;;;;4.77;1.80;;;9.10;99.90;;;9.25;100.00;99085.81;4990193;28;20630;-65
2021/12/28 01:05:07;;;;;;;3.83;1.73;;;9.10;99.90;;;9.26;100.00;99089.22;4981654;28;20639;-65
2021/12/28 01:07:34;;;;;;;3.70;1.00;;;9.10;99.90;;;9.25;100.00;99082.38;4974569;28;20648;-65
2021/12/28 01:10:06;;;;;;;1.43;0.90;;;9.10;99.90;;;9.28;100.00;99072.50;4983132;28;20662;-65
2021/12/28 01:12:33;;;;;;;1.40;1.10;;;9.10;99.90;;;9.34;100.00;99063.31;4959345;28;20714;-65
2021/12/28 01:15:01;;;;;;;6.33;1.40;;;9.10;99.90;;;9.34;100.00;99056.34;4978452;28;20653;-65
2021/12/28 01:17:27;;;;;;;0.60;0.60;;;9.20;99.90;;;9.31;100.00;99054.00;4973336;28;20677;-65
2021/12/28 01:19:54;;;;;;;0.60;0.60;;;9.20;99.90;;;9.39;100.00;99053.31;4978152;28;21245;-65
2021/12/28 01:22:22;;;;;;;0.83;0.70;;;9.20;99.90;;;9.41;100.00;99047.97;4992038;28;20614;-64
2021/12/28 01:24:49;;;;;;;1.60;1.50;;;9.20;99.90;;;9.42;100.00;99045.22;4988344;28;20646;-64
2021/12/28 01:27:15;;;;;;;0.83;0.80;;;9.20;99.90;;;9.47;100.00;99044.78;4992777;28;20622;-65
2021/12/28 01:29:42;;;;;;;3.27;1.20;;;9.30;99.90;;;9.43;100.00;99041.66;4988291;28;20662;-64
2021/12/28 01:32:10;;;;;;;2.27;1.50;;;9.20;99.90;;;9.46;100.00;99032.72;4989350;28;20643;-65
2021/12/28 01:34:37;;;;;;;1.57;1.50;;;9.20;99.90;;;9.45;100.00;99037.13;4981300;28;20638;-65
2021/12/28 01:37:04;;;;;;;3.87;1.67;;;9.20;99.90;;;9.42;100.00;99042.63;4980717;28;21289;-65
2021/12/28 01:42:16;;;;;;;1.33;1.17;;;9.20;99.90;;;9.45;100.00;99038.91;4989918;28;20709;-70
2021/12/28 01:44:43;;;;;;;3.17;1.37;;;9.20;99.90;;;9.37;100.00;99027.41;4972626;28;20634;-70
2021/12/28 01:47:12;;;;;;;1.60;1.27;;;9.20;99.90;;;9.38;100.00;99031.69;4992495;28;20610;-68
2021/12/28 01:49:39;;;;;;;0.40;0.30;;;9.20;99.90;;;9.37;100.00;99024.81;4973632;28;20631;-71
2021/12/28 01:52:07;;;;;;;4.63;1.63;;;9.10;99.90;;;9.33;100.00;99027.84;4972183;28;20618;-70
2021/12/28 01:54:33;;;;;;;0.80;0.80;;;9.10;99.90;;;9.29;100.00;99009.09;4950974;28;20635;-69
2021/12/28 01:57:00;;;;;;;2.00;1.50;;;9.00;99.90;;;9.26;100.00;99011.97;4936830;29;20612;-71
2021/12/28 01:59:28;;;;;;;0.70;0.70;;;9.00;99.90;;;9.22;100.00;99013.22;4957804;28;20639;-70
2021/12/28 02:01:56;;;;;;;1.37;1.27;;;9.00;99.90;;;9.16;100.00;99018.16;4971168;28;20685;-67
2021/12/28 02:04:28;;;;;;;0.37;0.37;;;8.90;99.90;;;9.10;100.00;99029.13;4971948;28;20619;-68
2021/12/28 02:06:57;;;;;;;4.03;1.40;;;8.80;99.90;;;9.08;100.00;99020.63;4971131;28;21071;-67
2021/12/28 02:09:25;;;;;;;1.03;0.80;;;8.80;99.90;;;9.03;100.00;99017.66;4954881;28;20670;-68
2021/12/28 02:11:52;;;;;;;1.43;1.33;;;8.70;99.90;;;8.99;100.00;99006.69;4972107;28;20642;-71
2021/12/28 02:14:21;;;;;;;3.23;1.53;;;8.80;99.90;;;8.99;100.00;99011.88;4970982;28;21103;-70
2021/12/28 02:16:49;;;;;;;1.03;0.80;;;8.70;99.90;;;9.02;100.00;99001.22;4982338;28;20658;-68
2021/12/28 02:19:18;;;;;;;2.30;1.20;;;8.80;99.90;;;8.96;100.00;98996.56;4967053;28;20663;-71
2021/12/28 02:21:46;;;;;;;2.17;1.50;;;8.80;99.90;;;9.00;100.00;98991.91;4955239;28;21043;-71
2021/12/28 02:24:13;;;;;;;1.00;0.93;;;8.80;99.90;;;9.05;100.00;98981.91;4969901;28;20635;-68
2021/12/28 02:26:40;;;;;;;0.70;0.70;;;8.80;99.90;;;9.05;100.00;98979.31;4969876;28;20715;-70
2021/12/28 02:29:07;;;;;;;4.00;1.10;;;8.80;99.90;;;9.11;100.00;98974.38;4971570;28;20626;-70
2021/12/28 02:31:34;;;;;;;6.97;1.50;;;8.90;99.90;;;9.03;100.00;98970.81;4970153;28;20693;-71
2021/12/28 02:34:03;;;;;;;0.37;0.37;;;8.90;99.90;;;9.07;100.00;98959.97;4970853;28;21022;-68
2021/12/28 02:36:31;;;;;;;0.67;0.60;;;8.80;99.90;;;9.05;100.00;98961.91;4970483;28;21232;-68
2021/12/28 02:38:58;;;;;;;2.17;1.13;;;8.90;99.90;;;9.12;100.00;98968.19;4972849;28;21022;-68
2021/12/28 02:41:25;;;;;;;0.60;0.57;;;8.90;99.90;;;9.14;100.00;98962.81;4954704;28;20754;-70
2021/12/28 02:44:00;;;;;;;2.13;1.23;;;8.90;99.90;;;9.16;100.00;98966.09;4970257;28;20639;-68
2021/12/28 02:46:28;;;;;;;1.37;0.80;;;8.90;99.90;;;9.15;100.00;98965.31;4969872;28;20603;-70
2021/12/28 02:48:55;;;;;;;3.47;1.57;;;8.90;99.90;;;9.20;100.00;98957.06;4969987;28;20614;-68
2021/12/28 02:51:22;;;;;;;1.23;1.03;;;9.00;99.90;;;9.21;100.00;98956.09;4971800;28;20642;-70
2021/12/28 02:53:49;;;;;;;1.47;1.37;;;9.00;99.90;;;9.25;100.00;98949.66;4962285;28;20670;-71
2021/12/28 02:56:21;;;;;;;4.60;1.53;;;9.00;99.90;;;9.21;100.00;98953.50;4970307;28;20714;-68
2021/12/28 02:58:52;;;;;;;1.10;1.00;;;9.00;99.90;;;9.11;100.00;98948.34;4952082;29;20652;-68
2021/12/28 03:01:25;;;;;;;3.37;1.17;;;8.90;99.90;;;9.14;100.00;98940.25;4952932;29;21008;-68
2021/12/28 03:04:04;;;;;;;1.13;1.00;;;8.90;99.90;;;9.17;100.00;98937.38;4952363;29;20620;-70
2021/12/28 03:06:33;;;;;;;3.57;1.37;;;8.90;99.90;;;9.17;100.00;98928.75;4941349;28;20677;-67
2021/12/28 03:09:05;;;;;;;2.43;1.10;;;8.90;99.90;;;9.13;100.00;98927.38;4969204;28;20645;-70
2021/12/28 03:11:32;;;;;;;1.73;1.63;;;8.90;99.90;;;9.14;100.00;98924.63;4954163;28;20694;-70
2021/12/28 03:14:02;;;;;;;1.27;1.17;;;9.00;99.90;;;9.13;100.00;98925.59;4970971;28;20639;-71
2021/12/28 03:16:31;;;;;;;0.93;0.73;;;8.90;99.90;;;9.15;100.00;98915.88;4971619;28;20611;-69
2021/12/28 03:18:58;;;;;;;2.20;0.70;;;8.90;99.90;;;9.18;100.00;98919.94;4970224;28;20673;-69
2021/12/28 03:21:26;;;;;;;2.20;0.80;;;9.00;99.90;;;9.20;100.00;98915.41;4969931;28;20639;-69
2021/12/28 03:23:54;;;;;;;1.37;1.00;;;9.00;99.90;;;9.18;100.00;98899.13;4970164;28;21006;-68
2021/12/28 03:26:21;;;;;;;1.87;1.30;;;9.00;99.90;;;9.22;100.00;98890.91;4955341;29;20620;-70
2021/12/28 03:28:49;;;;;;;1.23;0.70;;;9.00;99.90;;;9.25;100.00;98887.19;4969209;28;20635;-70
2021/12/28 03:31:20;;;;;;;0.93;0.80;;;9.00;99.90;;;9.25;100.00;98887.19;4974384;28;21206;-68
2021/12/28 03:33:51;;;;;;;0.60;0.60;;;9.00;99.90;;;9.23;100.00;98879.56;4963691;28;20643;-68
2021/12/28 03:36:19;;;;;;;0.80;0.80;;;9.00;99.90;;;9.24;100.00;98875.97;4957045;28;20641;-70
2021/12/28 03:38:47;;;;;;;6.33;1.40;;;9.00;99.90;;;9.22;100.00;98875.28;4972674;28;21247;-70
2021/12/28 03:41:18;;;;;;;1.00;1.00;;;9.00;99.90;;;9.30;100.00;98869.38;4951328;28;20674;-68
2021/12/28 03:43:50;;;;;;;0.70;0.70;;;9.00;99.90;;;9.30;100.00;98870.22;4972675;28;20996;-68
2021/12/28 03:46:18;;;;;;;2.00;0.90;;;9.10;99.90;;;9.31;100.00;98866.63;4974822;28;20984;-68
2021/12/28 03:48:46;;;;;;;1.53;0.90;;;9.10;99.90;;;9.32;100.00;98860.47;4972326;28;20631;-71
2021/12/28 03:51:14;;;;;;;5.50;0.70;;;9.10;99.90;;;9.26;100.00;98855.03;4974740;28;20634;-68
2021/12/28 03:53:43;;;;;;;0.70;0.70;;;9.00;99.90;;;9.21;100.00;98859.84;4973568;28;20639;-68
2021/12/28 03:56:10;;;;;;;0.80;0.80;;;9.00;99.90;;;9.15;100.00;98850.00;4972959;28;20754;-69
2021/12/28 03:58:40;;;;;;;0.80;0.70;;;8.90;99.90;;;9.10;100.00;98847.84;4972405;28;20779;-71
2021/12/28 04:01:12;;;;;;;0.67;0.67;;;8.90;99.90;;;9.08;100.00;98846.34;4973475;28;20655;-71
2021/12/28 04:03:40;;;;;;;0.63;0.63;;;8.90;99.90;;;9.10;100.00;98850.44;4972637;28;20631;-68
2021/12/28 04:06:10;;;;;;;1.07;0.60;;;8.90;99.90;;;8.96;100.00;98844.88;4973462;28;20603;-69
2021/12/28 04:08:41;;;;;;;0.40;0.40;;;8.80;99.90;;;8.95;100.00;98844.06;4971708;28;20639;-71
2021/12/28 04:13:49;;;;;;;1.07;1.00;;;8.70;99.90;;;8.94;100.00;98841.63;4973786;28;20695;-71
2021/12/28 04:16:17;;;;;;;1.90;0.60;;;8.70;99.90;;;8.86;100.00;98842.31;4972492;28;20649;-70
2021/12/28 04:18:45;;;;;;;0.87;0.87;;;8.70;99.90;;;8.83;100.00;98841.78;4973456;28;20678;-70
2021/12/28 04:21:12;;;;;;;1.10;0.60;;;8.70;99.90;;;8.89;100.00;98838.59;4971962;28;20638;-71
2021/12/28 04:23:40;;;;;;;0.80;0.80;;;8.70;99.90;;;8.83;100.00;98837.41;4972516;28;20678;-71
2021/12/28 04:26:07;;;;;;;0.40;0.40;;;8.70;99.90;;;8.79;100.00;98828.25;4971932;28;20631;-68
2021/12/28 04:28:34;;;;;;;1.70;0.77;;;8.60;99.90;;;8.77;100.00;98845.78;4988021;28;20984;-68
2021/12/28 04:31:02;;;;;;;0.80;0.60;;;8.60;99.90;;;8.77;100.00;98837.97;4972890;28;21320;-68
2021/12/28 04:33:29;;;;;;;0.30;0.30;;;8.60;99.90;;;8.74;100.00;98821.84;4973588;28;20630;-70
2021/12/28 04:35:56;;;;;;;1.77;0.80;;;8.60;99.90;;;8.73;100.00;98828.00;4972394;28;20645;-68
2021/12/28 04:38:23;;;;;;;0.80;0.80;;;8.50;99.90;;;8.73;100.00;98834.00;4973633;28;20661;-67
2021/12/28 04:40:50;;;;;;;0.67;0.60;;;8.50;99.90;;;8.71;100.00;98837.72;4972468;28;21074;-68
2021/12/28 04:43:17;;;;;;;0.60;0.57;;;8.50;99.90;;;8.72;100.00;98840.19;4973439;28;20611;-71
2021/12/28 04:45:44;;;;;;;8.40;0.60;;;8.50;99.90;;;8.66;100.00;98830.34;4972475;28;20615;-70
2021/12/28 04:48:11;;;;;;;1.30;0.97;;;8.50;99.90;;;8.70;100.00;98834.31;4973250;28;20607;-70
2021/12/28 04:50:40;;;;;;;3.00;0.87;;;8.50;99.90;;;8.73;100.00;98835.81;4973475;28;20653;-70
2021/12/28 04:53:11;;;;;;;2.07;1.13;;;8.50;99.90;;;8.73;100.00;98838.41;4972384;28;20646;-71
2021/12/28 04:55:44;;;;;;;2.47;0.50;;;8.50;99.90;;;8.71;100.00;98838.53;4972483;28;20679;-68
2021/12/28 04:58:12;;;;;;;2.57;0.90;;;8.50;99.90;;;8.67;100.00;98839.78;4973037;28;20706;-68
2021/12/28 05:00:42;;;;;;;0.40;0.40;;;8.50;99.90;;;8.67;100.00;98849.38;4971928;28;20655;-68
2021/12/28 05:03:09;;;;;;;2.37;1.03;;;8.40;99.90;;;8.67;100.00;98850.16;4972938;28;20983;-71
2021/12/28 05:05:43;;;;;;;2.77;0.73;;;8.40;99.90;;;8.62;100.00;98851.56;4971279;28;20690;-70
2021/12/28 05:08:14;;;;;;;1.37;0.90;;;8.40;99.90;;;8.58;100.00;98846.63;4955019;28;21088;-70
2021/12/28 05:10:42;;;;;;;0.60;0.60;;;8.40;99.90;;;8.56;100.00;98840.75;4970478;28;20669;-71
2021/12/28 05:13:10;;;;;;;0.40;0.40;;;8.40;99.90;;;8.56;100.00;98845.97;4971758;28;21202;-70
2021/12/28 05:15:38;;;;;;;4.70;1.20;;;8.40;99.90;;;8.56;100.00;98845.16;4971268;28;21393;-71
2021/12/28 05:18:05;;;;;;;0.83;0.83;;;8.30;99.90;;;8.56;100.00;98842.56;4973142;28;20638;-67
2021/12/28 05:20:32;;;;;;;1.83;1.00;;;8.30;99.90;;;8.59;100.00;98842.25;4972090;28;20655;-70
2021/12/28 05:22:59;;;;;;;1.63;1.10;;;8.40;99.90;;;8.57;100.00;98833.78;4973067;28;20623;-70
2021/12/28 05:25:26;;;;;;;0.93;0.63;;;8.30;99.90;;;8.60;100.00;98830.91;4970289;28;20669;-68
2021/12/28 05:27:53;;;;;;;1.90;0.77;;;8.40;99.90;;;8.62;100.00;98826.41;4967589;28;20990;-71
2021/12/28 05:30:21;;;;;;;4.10;1.03;;;8.40;99.90;;;8.63;100.00;98815.03;4955511;28;20669;-70
2021/12/28 05:32:48;;;;;;;1.83;1.10;;;8.40;99.90;;;8.63;100.00;98807.22;4972479;28;20622;-69
2021/12/28 05:35:16;;;;;;;3.07;1.03;;;8.40;99.90;;;8.62;100.00;98807.38;4953898;28;20952;-67
2021/12/28 05:37:43;;;;;;;0.87;0.87;;;8.40;99.90;;;8.64;100.00;98801.09;4954616;28;21011;-70
2021/12/28 05:40:12;;;;;;;2.57;0.90;;;8.50;99.90;;;8.63;100.00;98798.59;4970394;28;20705;-67
2021/12/28 05:42:39;;;;;;;0.90;0.90;;;8.40;99.90;;;8.69;100.00;98790.25;4971934;28;20619;-67
2021/12/28 05:45:07;;;;;;;0.80;0.80;;;8.50;99.90;;;8.73;100.00;98774.19;4965594;28;20636;-71
2021/12/28 05:47:35;;;;;;;4.50;1.20;;;8.50;99.90;;;8.80;100.00;98777.88;4953090;29;21213;-70
2021/12/28 05:50:04;;;;;;;1.10;0.80;;;8.60;99.90;;;8.80;100.00;98771.84;4948669;28;20669;-69
2021/12/28 05:52:31;;;;;;;1.07;0.70;;;8.60;99.90;;;8.78;100.00;98779.81;4972604;28;20615;-68
2021/12/28 05:54:58;;;;;;;3.03;1.00;;;8.60;99.90;;;8.85;100.00;98787.84;4978546;28;20643;-70
2021/12/28 05:57:25;;;;;;;6.07;1.10;;;8.60;99.90;;;8.88;100.00;98783.16;4972659;28;20619;-67
2021/12/28 05:59:52;;;;;;;0.50;0.50;;;8.70;99.90;;;8.89;100.00;98784.81;4970270;28;20673;-68
2021/12/28 06:02:19;;;;;;;1.00;0.90;;;8.70;99.90;;;8.88;100.00;98771.97;4969914;28;20639;-68
2021/12/28 06:04:46;;;;;;;1.40;1.00;;;8.60;99.90;;;8.89;100.00;98777.03;4970761;28;20647;-70
2021/12/28 06:07:13;;;;;;;2.00;0.67;;;8.70;99.90;;;8.92;100.00;98762.91;4970505;28;21212;-70
2021/12/28 06:09:40;;;;;;;1.07;0.37;;;8.70;99.90;;;8.99;100.00;98751.78;4972370;28;20625;-70
2021/12/28 06:12:08;;;;;;;6.17;1.93;;;8.80;99.90;;;9.03;100.00;98744.53;4973420;28;21291;-68
2021/12/28 06:14:35;;;;;;;1.27;0.70;;;8.80;99.90;;;9.05;100.00;98751.19;4974974;28;20615;-69
2021/12/28 06:17:02;;;;;;;0.67;0.67;;;8.80;99.90;;;9.00;100.00;98742.19;4973023;28;20643;-69
2021/12/28 06:19:29;;;;;;;0.50;0.50;;;8.80;99.90;;;9.03;100.00;98736.72;4973646;28;20673;-68
2021/12/28 06:21:56;;;;;;;0.97;0.67;;;8.80;99.90;;;9.07;100.00;98744.06;4973015;28;21113;-71
2021/12/28 06:24:22;;;;;;;1.83;0.67;;;8.90;99.90;;;9.11;100.00;98742.81;4956011;28;20679;-71
2021/12/28 06:26:49;;;;;;;1.13;0.80;;;8.90;99.90;;;9.10;100.00;98738.56;4936669;29;20620;-70
2021/12/28 06:29:17;;;;;;;0.80;0.60;;;8.90;99.90;;;9.13;100.00;98740.91;4957613;28;20643;-71
2021/12/28 06:31:44;;;;;;;0.40;0.40;;;8.90;99.90;;;9.16;100.00;98724.97;4972533;28;20658;-72
2021/12/28 06:34:11;;;;;;;0.57;0.57;;;9.00;99.90;;;9.23;100.00;98728.63;4973042;28;21178;-67
2021/12/28 06:36:38;;;;;;;1.00;0.70;;;9.00;99.90;;;9.21;100.00;98721.94;4972365;28;20718;-71
2021/12/28 06:39:06;;;;;;;0.83;0.67;;;9.00;99.90;;;9.29;100.00;98727.22;4973689;28;21091;-70
2021/12/28 06:41:33;;;;;;;0.50;0.50;;;9.10;99.90;;;9.29;100.00;98722.00;4973364;28;20669;-69
2021/12/28 06:44:01;;;;;;;0.30;0.30;;;9.00;99.90;;;9.29;100.00;98728.03;4973089;28;21218;-70
2021/12/28 06:46:28;;;;;;;0.43;0.43;;;9.00;99.90;;;9.19;100.00;98722.09;4970599;28;20603;-68
2021/12/28 06:48:55;;;;;;;1.00;0.80;;;9.00;99.90;;;9.15;100.00;98715.53;4971551;28;20627;-71
2021/12/28 06:51:22;;;;;;;2.83;0.40;;;8.90;99.90;;;9.11;100.00;98723.78;4971933;28;20666;-71
2021/12/28 06:53:49;;;;;;;0.60;0.57;;;8.90;99.90;;;9.14;100.00;98707.88;4965722;28;20635;-70
2021/12/28 06:56:16;;;;;;;0.50;0.50;;;8.90;99.90;;;9.09;100.00;98710.91;4973433;28;20633;-69
2021/12/28 06:58:43;;;;;;;0.30;0.30;;;8.80;99.90;;;9.15;100.00;98693.91;4966471;28;21436;-71
2021/12/28 07:01:10;;;;;;;3.07;0.43;;;8.90;99.90;;;9.19;100.00;98696.06;4975391;28;20662;-68
2021/12/28 07:03:38;;;;;;;0.50;0.30;;;9.00;99.90;;;9.24;100.00;98693.81;4974946;28;20678;-69
2021/12/28 07:06:07;;;;;;;1.07;0.50;;;9.00;99.90;;;9.17;100.00;98702.38;4973966;28;20603;-71
2021/12/28 07:08:35;;;;;;;1.90;0.80;;;9.00;99.90;;;9.14;100.00;98698.28;4970210;28;20635;-71
2021/12/28 07:11:03;;;;;;;0.50;0.50;;;9.00;99.90;;;9.15;100.00;98705.13;4974606;28;20685;-69
2021/12/28 07:13:30;;;;;;;0.90;0.57;;;8.90;99.90;;;9.04;100.00;98694.94;4974116;28;20638;-68
2021/12/28 07:15:57;;;;;;;0.83;0.50;;;8.80;99.90;;;8.99;100.00;98694.56;4976238;28;20610;-71
2021/12/28 07:18:24;;;;;;;0.60;0.60;;;8.80;99.90;;;9.01;100.00;98703.03;4974410;28;20670;-71
2021/12/28 07:20:51;;;;;;;2.77;0.70;;;8.80;99.90;;;8.99;100.00;98709.34;4990437;28;20757;-69
2021/12/28 07:23:18;;;;;;;0.63;0.50;;;8.80;99.90;;;8.93;100.00;98702.94;4973682;28;21218;-72
2021/12/28 07:25:46;;;;;;;0.70;0.70;;;8.80;99.90;;;8.88;100.00;98709.56;4975147;28;21190;-69
2021/12/28 07:28:13;;;;;;;0.30;0.30;;;8.70;99.90;;;8.90;100.00;98703.22;4973622;28;20635;-67
2021/12/28 07:30:44;;;;;;;2.67;0.73;;;8.70;99.90;;;8.90;100.00;98703.22;4974193;28;20643;-70
2021/12/28 07:33:11;;;;;;;1.47;0.53;;;8.60;99.90;;;8.83;100.00;98703.97;4971024;28;20638;-67
2021/12/28 07:35:38;;;;;;;0.50;0.40;;;8.60;99.90;;;8.78;100.00;98707.00;4973282;28;21263;-68
2021/12/28 07:38:05;;;;;;;1.50;0.67;;;8.60;99.90;;;8.76;100.00;98705.50;4955527;28;20643;-69
2021/12/28 07:40:33;;;;;;;1.70;0.90;;;8.50;99.90;;;8.80;100.00;98707.66;5001893;22;21214;-67
2021/12/28 07:43:00;;;;;;;6.50;3.13;;;8.60;99.90;;;8.75;100.00;98709.09;5018177;28;20729;-67
2021/12/28 07:45:27;;;;;;;0.30;0.30;;;8.50;99.90;;;8.72;100.00;98711.97;5047141;28;20631;-66
2021/12/28 07:47:54;;;;;;;0.47;0.47;;;8.50;99.90;;;8.63;100.00;98708.44;5051813;28;21187;-67
2021/12/28 07:50:21;;;;;;;0.60;0.60;;;8.50;99.90;;;8.63;100.00;98703.25;5052531;28;20633;-67
2021/12/28 07:52:49;;;;;;;0.77;0.50;;;8.50;99.90;;;8.65;100.00;98711.72;5000831;28;21217;-65
2021/12/28 07:55:16;;;;;;;1.47;0.60;;;8.40;99.90;;;8.66;100.00;98715.13;5014848;28;20608;-66
2021/12/28 07:57:43;;;;;;;0.60;0.50;;;8.50;99.90;;;8.65;100.00;98716.09;5036392;28;21186;-66
2021/12/28 08:00:17;;;;;;;0.80;0.80;;;8.50;99.90;;;8.58;100.00;98708.06;5053767;28;20655;-66
2021/12/28 08:02:44;;;;;;;0.67;0.67;;;8.40;99.90;;;8.61;100.00;98710.38;5018490;28;21581;-67
2021/12/28 08:05:15;;;;;;;1.50;1.00;;;8.40;99.90;;;8.59;100.00;98712.31;5023410;28;20651;-67
2021/12/28 08:07:43;;;;;;;2.93;1.00;;;8.50;99.90;;;8.62;100.00;98708.59;5031156;28;20711;-67
2021/12/28 08:10:12;;;;;;;0.70;0.53;;;8.50;99.90;;;8.63;100.00;98718.84;5022795;28;20640;-67
2021/12/28 08:12:40;;;;;;;3.23;0.87;;;8.50;99.90;;;8.59;100.00;98717.50;5032663;28;21180;-66
2021/12/28 08:15:08;;;;;;;7.93;0.43;;;8.40;99.90;;;8.57;100.00;98709.84;5014496;28;20635;-66
2021/12/28 08:17:36;;;;;;;0.30;0.30;;;8.40;99.90;;;8.56;100.00;98707.41;5048695;28;20993;-65
2021/12/28 08:20:08;;;;;;;4.50;0.87;;;8.40;99.90;;;8.62;100.00;98704.22;5035031;28;20655;-70
2021/12/28 08:22:36;;;;;;;2.30;0.70;;;8.40;99.90;;;8.63;100.00;98711.03;5033967;28;20610;-66
2021/12/28 08:25:06;;;;;;;0.83;0.60;;;8.50;99.90;;;8.60;100.00;98709.53;5022813;28;20655;-66
2021/12/28 08:27:33;;;;;;;1.07;0.93;;;8.50;99.90;;;8.63;100.00;98721.44;5014032;28;20631;-65
2021/12/28 08:30:00;;;;;;;1.23;0.60;;;8.50;99.90;;;8.64;100.00;98707.50;5013395;28;20739;-65
2021/12/28 08:32:27;;;;;;;4.23;0.70;;;8.50;99.90;;;8.66;100.00;98707.34;5030229;28;20700;-66
2021/12/28 08:34:54;;;;;;;0.70;0.70;;;8.50;99.90;;;8.68;100.00;98716.63;5028853;28;21005;-66
2021/12/28 08:37:21;;;;;;;0.53;0.53;;;8.50;99.90;;;8.77;100.00;98714.97;5031916;28;20631;-67
2021/12/28 08:39:48;;;;;;;1.53;1.43;;;8.50;99.90;;;8.74;100.00;98716.06;5030943;28;21026;-67
2021/12/28 08:42:15;;;;;;;0.30;0.30;;;8.60;99.90;;;8.74;100.00;98718.66;4999880;28;20661;-66
2021/12/28 08:44:42;;;;;;;1.07;0.57;;;8.60;99.90;;;8.75;100.00;98715.09;5010409;28;20633;-67
2021/12/28 08:47:09;;;;;;;0.70;0.70;;;8.60;99.90;;;8.76;100.00;98716.72;5012863;28;20716;-66
2021/12/28 08:49:36;;;;;;;0.93;0.60;;;8.60;99.90;;;8.81;100.00;98724.09;5036792;28;20637;-67
2021/12/28 08:52:03;;;;;;;0.80;0.43;;;8.60;99.90;;;8.83;100.00;98723.00;5043115;28;20662;-66
2021/12/28 08:54:31;;;;;;;0.50;0.50;;;8.70;99.90;;;8.83;100.00;98725.59;5038712;28;20650;-68
2021/12/28 08:56:58;;;;;;;0.60;0.50;;;8.70;99.90;;;8.86;100.00;98727.88;5028970;28;20706;-68
2021/12/28 08:59:25;;;;;;;0.43;0.43;;;8.70;99.90;;;8.89;100.00;98734.59;5038509;28;21011;-66
2021/12/28 09:01:55;;;;;;;0.30;0.30;;;8.80;99.90;;;8.95;100.00;98737.44;5021379;28;20651;-67
2021/12/28 09:04:22;;;;;;;0.37;0.37;;;8.80;99.90;;;8.98;100.00;98739.75;4996305;28;20728;-67
2021/12/28 09:06:49;;;;;;;1.03;0.70;;;8.80;99.90;;;9.09;100.00;98736.91;5013376;28;20616;-67
2021/12/28 09:09:16;;;;;;;0.60;0.60;;;8.90;99.90;;;9.14;100.00;98750.31;5028255;28;20651;-67
2021/12/28 09:11:44;;;;;;;0.90;0.40;;;9.00;99.90;;;9.14;100.00;98747.72;5029974;28;20656;-64
2021/12/28 09:14:11;;;;;;;0.70;0.70;;;9.00;99.90;;;9.21;100.00;98740.16;5026134;28;20675;-65
2021/12/28 09:16:38;;;;;;;0.60;0.60;;;9.10;99.90;;;9.27;100.00;98745.56;5031995;28;20609;-65
2021/12/28 09:19:05;;;;;;;0.40;0.40;;;9.10;99.90;;;9.33;100.00;98751.97;5029994;28;20640;-65
2021/12/28 09:21:32;;;;;;;0.40;0.40;;;9.20;99.90;;;9.40;100.00;98758.22;5030158;28;21142;-66
2021/12/28 09:24:00;;;;;;;0.50;0.50;;;9.20;99.90;;;9.42;100.00;98758.91;4999757;28;20716;-65
2021/12/28 09:26:47;;;;;;;0.30;0.30;;;9.20;99.90;;;9.38;100.00;98768.78;5045203;28;20630;-67
2021/12/28 09:29:14;;;;;;;0.40;0.40;;;9.20;99.90;;;9.37;100.00;98771.53;5051481;28;21298;-65
2021/12/28 09:31:41;;;;;;;0.50;0.50;;;9.20;99.90;;;9.39;100.00;98783.44;5016006;28;20688;-67
2021/12/28 09:34:09;;;;;;;0.40;0.40;;;9.20;99.90;;;9.37;100.00;98766.31;5031626;28;20656;-66
2021/12/28 09:36:56;;;;;;;0.40;0.40;;;9.20;99.90;;;9.40;100.00;98784.25;5029618;28;20726;-66
2021/12/28 09:39:26;;;;;;;0.40;0.40;;;9.20;99.90;;;9.42;100.00;98776.28;5010161;28;20648;-67
2021/12/28 09:41:58;;;;;;;0.67;0.43;;;9.20;99.90;;;9.49;100.00;98785.16;5022636;28;20645;-68
2021/12/28 09:44:29;;;;;;;0.50;0.50;;;9.30;99.90;;;9.54;100.00;98788.16;5014662;28;20611;-67
2021/12/28 09:46:58;;;;;;;0.43;0.43;;;9.30;99.90;;;9.53;100.00;98783.88;5014340;28;20700;-66
2021/12/28 09:49:27;;;;;;;0.67;0.60;;;9.30;99.90;;;9.55;100.00;98782.78;5034939;28;21187;-66
2021/12/28 09:51:56;;;;;;;0.53;0.53;;;9.40;99.90;;;9.63;100.00;98787.22;5031596;28;20665;-66
2021/12/28 09:54:26;;;;;;;0.70;0.70;;;9.40;99.90;;;9.66;100.00;98782.56;5049946;28;20650;-66
2021/12/28 09:56:55;;;;;;;0.90;0.90;;;9.50;99.90;;;9.71;100.00;98790.72;5033510;28;20599;-66
2021/12/28 09:59:24;;;;;;;1.03;0.73;;;9.50;99.90;;;9.76;100.00;98792.88;5049324;28;20631;-65
2021/12/28 10:01:51;;;;;;;0.63;0.63;;;9.50;99.90;;;9.79;100.00;98787.41;5027299;28;21231;-65
2021/12/28 10:04:19;;;;;;;0.63;0.63;;;9.60;99.90;;;9.88;100.00;98796.91;5026059;28;20631;-66
2021/12/28 10:06:47;;;;;;;0.57;0.57;;;9.70;99.90;;;9.90;100.00;98794.97;5044650;28;20667;-66
2021/12/28 10:09:20;;;;;;;0.70;0.70;;;9.70;99.90;;;9.96;100.00;98794.38;5033527;28;20604;-65
2021/12/28 10:11:53;;;;;;;0.60;0.60;;;9.80;99.90;;;9.94;100.00;98791.09;5049268;28;20701;-65
2021/12/28 10:14:27;;;;;;;1.13;0.63;;;9.80;99.90;;;9.98;100.00;98797.66;5013937;28;20636;-67
2021/12/28 10:16:57;;;;;;;0.40;0.30;;;9.70;99.90;;;9.95;100.00;98796.16;5012266;28;20985;-66
2021/12/28 10:19:51;;;;;;;0.60;0.60;;;9.70;99.90;;;10.04;100.00;98794.44;5028012;28;20724;-67
2021/12/28 10:22:43;;;;;;;0.77;0.60;;;9.80;99.90;;;10.11;100.00;98790.28;5045142;28;20667;-67
2021/12/28 10:25:19;;;;;;;0.70;0.70;;;9.90;99.90;;;10.17;100.00;98779.25;5047363;28;20618;-66
2021/12/28 10:27:52;;;;;;;0.50;0.50;;;10.00;99.90;;;10.10;100.00;98786.88;5030840;28;20955;-66
2021/12/28 10:30:36;;;;;;;0.60;0.60;;;9.90;99.90;;;10.06;100.00;98782.06;5020271;28;20716;-66
2021/12/28 10:33:07;;;;;;;0.90;0.73;;;9.90;99.90;;;10.19;100.00;98781.72;5043058;28;20658;-65
2021/12/28 10:35:50;;;;;;;0.73;0.73;;;10.00;99.90;;;10.25;100.00;98788.91;5034921;28;20642;-66
2021/12/28 10:38:23;;;;;;;0.70;0.70;;;10.10;99.90;;;10.33;100.00;98784.56;5013316;28;20659;-65